sensor_id;sensor_type;location;lat;lon;timestamp;P1;durP1;ratioP1;P2;durP2;ratioP2
41943;SDS011;27636;52.610;13.244;2023-06-14T00:04:03;4.40;;;2.13;;
41943;SDS011;27636;52.610;13.244;2023-06-14T00:09:10;5.32;;;1.55;;
41943;SDS011;27636;52.610;13.244;2023-06-14T00:14:15;3.63;;;1.70;;
41943;SDS011;27636;52.610;13.244;2023-06-14T00:19:18;9.10;;;1.95;;
41943;SDS011;27636;52.610;13.244;2023-06-14T00:24:24;5.72;;;2.38;;
41943;SDS011;27636;52.610;13.244;2023-06-14T00:29:28;5.78;;;2.38;;
41943;SDS011;27636;52.610;13.244;2023-06-14T00:34:31;4.13;;;1.60;;
41943;SDS011;27636;52.610;13.244;2023-06-14T00:39:37;4.37;;;2.07;;
41943;SDS011;27636;52.610;13.244;2023-06-14T00:44:41;4.13;;;1.83;;
41943;SDS011;27636;52.610;13.244;2023-06-14T00:49:45;5.18;;;2.10;;
41943;SDS011;27636;52.610;13.244;2023-06-14T00:54:50;4.33;;;2.47;;
41943;SDS011;27636;52.610;13.244;2023-06-14T00:59:53;5.95;;;1.98;;
41943;SDS011;27636;52.610;13.244;2023-06-14T01:04:58;4.20;;;2.13;;
41943;SDS011;27636;52.610;13.244;2023-06-14T01:10:07;4.47;;;2.13;;
41943;SDS011;27636;52.610;13.244;2023-06-14T01:15:20;5.20;;;2.45;;
41943;SDS011;27636;52.610;13.244;2023-06-14T01:20:27;5.25;;;2.55;;
41943;SDS011;27636;52.610;13.244;2023-06-14T01:25:33;5.75;;;2.25;;
41943;SDS011;27636;52.610;13.244;2023-06-14T01:30:39;4.00;;;2.13;;
41943;SDS011;27636;52.610;13.244;2023-06-14T01:35:50;5.10;;;2.13;;
41943;SDS011;27636;52.610;13.244;2023-06-14T01:40:56;4.43;;;2.23;;
41943;SDS011;27636;52.610;13.244;2023-06-14T01:46:01;4.78;;;1.80;;
41943;SDS011;27636;52.610;13.244;2023-06-14T01:51:06;4.67;;;2.20;;
41943;SDS011;27636;52.610;13.244;2023-06-14T01:56:12;5.60;;;1.83;;
41943;SDS011;27636;52.610;13.244;2023-06-14T02:01:15;5.15;;;2.30;;
41943;SDS011;27636;52.610;13.244;2023-06-14T02:06:20;4.93;;;2.25;;
41943;SDS011;27636;52.610;13.244;2023-06-14T02:11:26;7.22;;;2.65;;
41943;SDS011;27636;52.610;13.244;2023-06-14T02:16:30;4.63;;;2.22;;
41943;SDS011;27636;52.610;13.244;2023-06-14T02:21:38;5.00;;;2.63;;
41943;SDS011;27636;52.610;13.244;2023-06-14T02:26:43;6.32;;;3.03;;
41943;SDS011;27636;52.610;13.244;2023-06-14T02:31:50;9.98;;;2.72;;
41943;SDS011;27636;52.610;13.244;2023-06-14T02:36:56;4.53;;;2.30;;
41943;SDS011;27636;52.610;13.244;2023-06-14T02:42:01;5.60;;;2.33;;
41943;SDS011;27636;52.610;13.244;2023-06-14T02:54:09;5.45;;;2.47;;
41943;SDS011;27636;52.610;13.244;2023-06-14T02:59:16;7.03;;;2.88;;
41943;SDS011;27636;52.610;13.244;2023-06-14T03:09:24;8.32;;;2.83;;
41943;SDS011;27636;52.610;13.244;2023-06-14T03:14:30;7.40;;;3.45;;
41943;SDS011;27636;52.610;13.244;2023-06-14T03:19:35;6.80;;;3.72;;
41943;SDS011;27636;52.610;13.244;2023-06-14T03:24:40;6.35;;;3.53;;
41943;SDS011;27636;52.610;13.244;2023-06-14T03:29:48;9.70;;;3.55;;
41943;SDS011;27636;52.610;13.244;2023-06-14T03:34:52;9.45;;;3.50;;
41943;SDS011;27636;52.610;13.244;2023-06-14T03:40:00;5.35;;;2.58;;
41943;SDS011;27636;52.610;13.244;2023-06-14T03:45:08;8.20;;;3.70;;
41943;SDS011;27636;52.610;13.244;2023-06-14T03:50:12;7.63;;;3.05;;
41943;SDS011;27636;52.610;13.244;2023-06-14T03:55:17;8.95;;;3.13;;
41943;SDS011;27636;52.610;13.244;2023-06-14T04:00:25;8.05;;;3.80;;
41943;SDS011;27636;52.610;13.244;2023-06-14T04:05:30;7.72;;;3.92;;
41943;SDS011;27636;52.610;13.244;2023-06-14T04:10:34;9.98;;;3.65;;
41943;SDS011;27636;52.610;13.244;2023-06-14T04:15:39;8.35;;;3.30;;
41943;SDS011;27636;52.610;13.244;2023-06-14T04:20:47;10.10;;;4.47;;
41943;SDS011;27636;52.610;13.244;2023-06-14T04:25:52;9.13;;;4.00;;
41943;SDS011;27636;52.610;13.244;2023-06-14T04:36:06;7.85;;;3.85;;
41943;SDS011;27636;52.610;13.244;2023-06-14T04:41:11;11.52;;;3.50;;
41943;SDS011;27636;52.610;13.244;2023-06-14T04:46:18;6.40;;;3.30;;
41943;SDS011;27636;52.610;13.244;2023-06-14T04:51:23;7.00;;;3.88;;
41943;SDS011;27636;52.610;13.244;2023-06-14T04:56:33;8.73;;;4.57;;
41943;SDS011;27636;52.610;13.244;2023-06-14T05:01:39;8.77;;;3.92;;
41943;SDS011;27636;52.610;13.244;2023-06-14T05:06:44;6.22;;;3.25;;
41943;SDS011;27636;52.610;13.244;2023-06-14T05:11:48;10.53;;;4.30;;
41943;SDS011;27636;52.610;13.244;2023-06-14T05:16:55;11.05;;;3.53;;
41943;SDS011;27636;52.610;13.244;2023-06-14T05:21:58;11.38;;;3.67;;
41943;SDS011;27636;52.610;13.244;2023-06-14T05:27:02;7.40;;;3.30;;
41943;SDS011;27636;52.610;13.244;2023-06-14T05:32:07;15.73;;;4.13;;
41943;SDS011;27636;52.610;13.244;2023-06-14T05:37:11;6.60;;;3.67;;
41943;SDS011;27636;52.610;13.244;2023-06-14T05:42:16;7.03;;;3.45;;
41943;SDS011;27636;52.610;13.244;2023-06-14T05:47:20;10.25;;;3.50;;
41943;SDS011;27636;52.610;13.244;2023-06-14T05:52:24;7.28;;;3.15;;
41943;SDS011;27636;52.610;13.244;2023-06-14T05:57:28;6.72;;;3.22;;
41943;SDS011;27636;52.610;13.244;2023-06-14T06:02:32;9.18;;;3.67;;
41943;SDS011;27636;52.610;13.244;2023-06-14T06:07:36;10.18;;;3.67;;
41943;SDS011;27636;52.610;13.244;2023-06-14T06:12:40;6.40;;;3.00;;
41943;SDS011;27636;52.610;13.244;2023-06-14T06:17:46;7.33;;;3.47;;
41943;SDS011;27636;52.610;13.244;2023-06-14T06:22:58;9.20;;;3.80;;
41943;SDS011;27636;52.610;13.244;2023-06-14T06:28:01;7.57;;;4.13;;
41943;SDS011;27636;52.610;13.244;2023-06-14T06:33:07;6.45;;;3.03;;
41943;SDS011;27636;52.610;13.244;2023-06-14T06:38:10;10.40;;;3.38;;
41943;SDS011;27636;52.610;13.244;2023-06-14T06:43:14;6.80;;;3.40;;
41943;SDS011;27636;52.610;13.244;2023-06-14T06:48:24;7.65;;;3.38;;
41943;SDS011;27636;52.610;13.244;2023-06-14T06:53:27;7.35;;;3.00;;
41943;SDS011;27636;52.610;13.244;2023-06-14T06:58:43;8.02;;;3.13;;
41943;SDS011;27636;52.610;13.244;2023-06-14T07:03:48;9.02;;;2.92;;
41943;SDS011;27636;52.610;13.244;2023-06-14T07:08:52;8.43;;;3.53;;
41943;SDS011;27636;52.610;13.244;2023-06-14T07:13:56;6.10;;;2.97;;
41943;SDS011;27636;52.610;13.244;2023-06-14T07:19:01;7.50;;;3.60;;
41943;SDS011;27636;52.610;13.244;2023-06-14T07:24:05;7.53;;;3.25;;
41943;SDS011;27636;52.610;13.244;2023-06-14T07:29:09;6.30;;;2.92;;
41943;SDS011;27636;52.610;13.244;2023-06-14T07:34:14;6.63;;;3.20;;
41943;SDS011;27636;52.610;13.244;2023-06-14T07:39:17;11.77;;;3.83;;
41943;SDS011;27636;52.610;13.244;2023-06-14T07:44:22;6.85;;;3.53;;
41943;SDS011;27636;52.610;13.244;2023-06-14T07:49:27;6.53;;;3.42;;
41943;SDS011;27636;52.610;13.244;2023-06-14T07:54:30;6.50;;;2.60;;
41943;SDS011;27636;52.610;13.244;2023-06-14T07:59:35;6.28;;;2.92;;
41943;SDS011;27636;52.610;13.244;2023-06-14T08:04:41;7.95;;;3.15;;
41943;SDS011;27636;52.610;13.244;2023-06-14T08:09:45;6.15;;;3.20;;
41943;SDS011;27636;52.610;13.244;2023-06-14T08:14:48;9.60;;;3.10;;
41943;SDS011;27636;52.610;13.244;2023-06-14T08:20:12;5.88;;;3.05;;
41943;SDS011;27636;52.610;13.244;2023-06-14T08:25:19;6.32;;;2.78;;
41943;SDS011;27636;52.610;13.244;2023-06-14T08:44:47;10.10;;;2.67;;
41943;SDS011;27636;52.610;13.244;2023-06-14T08:49:51;9.77;;;3.20;;
41943;SDS011;27636;52.610;13.244;2023-06-14T08:55:00;7.82;;;2.47;;
41943;SDS011;27636;52.610;13.244;2023-06-14T09:00:08;9.07;;;2.78;;
41943;SDS011;27636;52.610;13.244;2023-06-14T09:05:16;5.72;;;2.80;;
41943;SDS011;27636;52.610;13.244;2023-06-14T09:10:21;6.88;;;2.90;;
41943;SDS011;27636;52.610;13.244;2023-06-14T09:20:31;10.43;;;4.28;;
41943;SDS011;27636;52.610;13.244;2023-06-14T09:25:41;6.43;;;3.27;;
41943;SDS011;27636;52.610;13.244;2023-06-14T09:30:49;6.18;;;2.80;;
41943;SDS011;27636;52.610;13.244;2023-06-14T09:40:58;6.75;;;3.25;;
41943;SDS011;27636;52.610;13.244;2023-06-14T09:46:03;7.27;;;3.03;;
41943;SDS011;27636;52.610;13.244;2023-06-14T09:51:09;8.02;;;2.70;;
41943;SDS011;27636;52.610;13.244;2023-06-14T09:56:17;9.90;;;2.80;;
41943;SDS011;27636;52.610;13.244;2023-06-14T10:01:30;10.15;;;3.38;;
41943;SDS011;27636;52.610;13.244;2023-06-14T10:06:36;6.28;;;2.70;;
41943;SDS011;27636;52.610;13.244;2023-06-14T10:11:43;8.23;;;3.17;;
41943;SDS011;27636;52.610;13.244;2023-06-14T10:16:51;9.43;;;2.90;;
41943;SDS011;27636;52.610;13.244;2023-06-14T10:22:00;8.27;;;3.05;;
41943;SDS011;27636;52.610;13.244;2023-06-14T10:27:08;7.13;;;2.53;;
41943;SDS011;27636;52.610;13.244;2023-06-14T10:32:16;7.60;;;2.80;;
41943;SDS011;27636;52.610;13.244;2023-06-14T10:37:22;9.13;;;2.72;;
41943;SDS011;27636;52.610;13.244;2023-06-14T10:42:27;7.97;;;2.83;;
41943;SDS011;27636;52.610;13.244;2023-06-14T10:47:35;6.50;;;2.83;;
41943;SDS011;27636;52.610;13.244;2023-06-14T10:52:41;7.47;;;3.15;;
41943;SDS011;27636;52.610;13.244;2023-06-14T10:57:49;7.70;;;3.25;;
41943;SDS011;27636;52.610;13.244;2023-06-14T11:03:08;10.68;;;2.70;;
41943;SDS011;27636;52.610;13.244;2023-06-14T11:08:40;9.82;;;3.05;;
41943;SDS011;27636;52.610;13.244;2023-06-14T11:14:15;9.02;;;2.70;;
41943;SDS011;27636;52.610;13.244;2023-06-14T11:19:20;8.82;;;2.70;;
41943;SDS011;27636;52.610;13.244;2023-06-14T11:24:24;6.10;;;2.78;;
41943;SDS011;27636;52.610;13.244;2023-06-14T11:29:28;5.90;;;2.43;;
41943;SDS011;27636;52.610;13.244;2023-06-14T11:34:34;6.45;;;3.08;;
41943;SDS011;27636;52.610;13.244;2023-06-14T11:39:42;6.60;;;2.95;;
41943;SDS011;27636;52.610;13.244;2023-06-14T11:44:46;7.15;;;2.50;;
41943;SDS011;27636;52.610;13.244;2023-06-14T11:49:51;14.43;;;2.50;;
41943;SDS011;27636;52.610;13.244;2023-06-14T11:54:55;5.65;;;2.38;;
41943;SDS011;27636;52.610;13.244;2023-06-14T11:59:59;8.85;;;2.78;;
41943;SDS011;27636;52.610;13.244;2023-06-14T12:05:05;4.67;;;2.23;;
41943;SDS011;27636;52.610;13.244;2023-06-14T12:10:13;8.85;;;2.45;;
41943;SDS011;27636;52.610;13.244;2023-06-14T12:15:17;7.97;;;2.72;;
41943;SDS011;27636;52.610;13.244;2023-06-14T12:20:22;6.80;;;2.50;;
41943;SDS011;27636;52.610;13.244;2023-06-14T12:25:32;8.85;;;2.70;;
41943;SDS011;27636;52.610;13.244;2023-06-14T12:30:36;5.45;;;2.30;;
41943;SDS011;27636;52.610;13.244;2023-06-14T12:40:46;6.18;;;2.33;;
41943;SDS011;27636;52.610;13.244;2023-06-14T12:45:49;4.80;;;2.15;;
41943;SDS011;27636;52.610;13.244;2023-06-14T12:50:55;3.67;;;1.83;;
41943;SDS011;27636;52.610;13.244;2023-06-14T12:55:59;9.90;;;2.63;;
41943;SDS011;27636;52.610;13.244;2023-06-14T13:01:02;5.77;;;2.00;;
41943;SDS011;27636;52.610;13.244;2023-06-14T13:06:07;6.72;;;2.63;;
41943;SDS011;27636;52.610;13.244;2023-06-14T13:11:11;11.20;;;2.72;;
41943;SDS011;27636;52.610;13.244;2023-06-14T13:16:15;7.70;;;2.03;;
41943;SDS011;27636;52.610;13.244;2023-06-14T13:21:20;5.88;;;2.65;;
41943;SDS011;27636;52.610;13.244;2023-06-14T13:26:23;5.55;;;2.10;;
41943;SDS011;27636;52.610;13.244;2023-06-14T13:31:28;9.57;;;2.72;;
41943;SDS011;27636;52.610;13.244;2023-06-14T13:36:33;6.43;;;2.00;;
41943;SDS011;27636;52.610;13.244;2023-06-14T13:41:37;5.22;;;1.95;;
41943;SDS011;27636;52.610;13.244;2023-06-14T13:46:41;7.63;;;2.20;;
41943;SDS011;27636;52.610;13.244;2023-06-14T13:51:47;4.75;;;2.20;;
41943;SDS011;27636;52.610;13.244;2023-06-14T13:56:51;5.28;;;2.30;;
41943;SDS011;27636;52.610;13.244;2023-06-14T14:01:54;8.00;;;2.65;;
41943;SDS011;27636;52.610;13.244;2023-06-14T14:07:00;5.32;;;2.50;;
41943;SDS011;27636;52.610;13.244;2023-06-14T14:12:04;9.77;;;2.15;;
41943;SDS011;27636;52.610;13.244;2023-06-14T14:17:08;5.53;;;2.10;;
41943;SDS011;27636;52.610;13.244;2023-06-14T14:22:13;4.85;;;2.10;;
41943;SDS011;27636;52.610;13.244;2023-06-14T14:27:17;5.13;;;2.30;;
41943;SDS011;27636;52.610;13.244;2023-06-14T14:32:20;10.90;;;2.50;;
41943;SDS011;27636;52.610;13.244;2023-06-14T14:37:25;8.07;;;2.53;;
41943;SDS011;27636;52.610;13.244;2023-06-14T14:42:29;4.80;;;2.22;;
41943;SDS011;27636;52.610;13.244;2023-06-14T14:47:32;6.30;;;2.47;;
41943;SDS011;27636;52.610;13.244;2023-06-14T14:52:37;5.40;;;2.33;;
41943;SDS011;27636;52.610;13.244;2023-06-14T14:57:41;7.80;;;2.80;;
41943;SDS011;27636;52.610;13.244;2023-06-14T15:02:44;4.95;;;2.53;;
41943;SDS011;27636;52.610;13.244;2023-06-14T15:07:49;6.60;;;2.50;;
41943;SDS011;27636;52.610;13.244;2023-06-14T15:17:56;3.97;;;2.00;;
41943;SDS011;27636;52.610;13.244;2023-06-14T15:23:03;5.47;;;2.33;;
41943;SDS011;27636;52.610;13.244;2023-06-14T15:33:11;5.40;;;2.30;;
41943;SDS011;27636;52.610;13.244;2023-06-14T15:38:16;5.63;;;2.38;;
41943;SDS011;27636;52.610;13.244;2023-06-14T15:48:26;8.57;;;2.17;;
41943;SDS011;27636;52.610;13.244;2023-06-14T15:53:31;6.18;;;2.25;;
41943;SDS011;27636;52.610;13.244;2023-06-14T16:03:38;4.93;;;2.03;;
41943;SDS011;27636;52.610;13.244;2023-06-14T16:08:44;4.73;;;2.27;;
41943;SDS011;27636;52.610;13.244;2023-06-14T16:13:48;7.85;;;2.20;;
41943;SDS011;27636;52.610;13.244;2023-06-14T16:18:51;9.20;;;2.25;;
41943;SDS011;27636;52.610;13.244;2023-06-14T16:23:56;10.82;;;2.17;;
41943;SDS011;27636;52.610;13.244;2023-06-14T16:29:00;4.63;;;2.10;;
41943;SDS011;27636;52.610;13.244;2023-06-14T16:34:03;8.02;;;2.10;;
41943;SDS011;27636;52.610;13.244;2023-06-14T16:39:12;8.27;;;2.65;;
41943;SDS011;27636;52.610;13.244;2023-06-14T16:44:16;7.10;;;2.50;;
41943;SDS011;27636;52.610;13.244;2023-06-14T16:49:21;7.03;;;2.53;;
41943;SDS011;27636;52.610;13.244;2023-06-14T16:54:26;5.10;;;2.42;;
41943;SDS011;27636;52.610;13.244;2023-06-14T17:04:33;6.10;;;1.92;;
41943;SDS011;27636;52.610;13.244;2023-06-14T17:09:37;5.07;;;2.20;;
41943;SDS011;27636;52.610;13.244;2023-06-14T17:14:41;6.18;;;2.08;;
41943;SDS011;27636;52.610;13.244;2023-06-14T17:19:45;5.75;;;2.20;;
41943;SDS011;27636;52.610;13.244;2023-06-14T17:24:50;7.53;;;2.70;;
41943;SDS011;27636;52.610;13.244;2023-06-14T17:34:57;4.95;;;1.83;;
41943;SDS011;27636;52.610;13.244;2023-06-14T17:40:02;5.45;;;2.38;;
41943;SDS011;27636;52.610;13.244;2023-06-14T17:45:06;13.48;;;2.40;;
41943;SDS011;27636;52.610;13.244;2023-06-14T17:50:10;4.85;;;2.10;;
41943;SDS011;27636;52.610;13.244;2023-06-14T17:55:15;6.38;;;2.65;;
41943;SDS011;27636;52.610;13.244;2023-06-14T18:00:19;5.88;;;2.22;;
41943;SDS011;27636;52.610;13.244;2023-06-14T18:05:23;6.10;;;2.30;;
41943;SDS011;27636;52.610;13.244;2023-06-14T18:10:29;13.18;;;2.95;;
41943;SDS011;27636;52.610;13.244;2023-06-14T18:15:33;5.97;;;1.88;;
41943;SDS011;27636;52.610;13.244;2023-06-14T18:20:36;6.20;;;2.90;;
41943;SDS011;27636;52.610;13.244;2023-06-14T18:25:41;6.85;;;1.90;;
41943;SDS011;27636;52.610;13.244;2023-06-14T18:30:44;5.15;;;2.28;;
41943;SDS011;27636;52.610;13.244;2023-06-14T18:35:48;6.05;;;2.33;;
41943;SDS011;27636;52.610;13.244;2023-06-14T18:40:53;6.25;;;2.20;;
41943;SDS011;27636;52.610;13.244;2023-06-14T18:51:02;5.43;;;2.03;;
41943;SDS011;27636;52.610;13.244;2023-06-14T18:56:07;6.00;;;2.05;;
41943;SDS011;27636;52.610;13.244;2023-06-14T19:01:11;6.50;;;2.53;;
41943;SDS011;27636;52.610;13.244;2023-06-14T19:06:15;6.00;;;2.33;;
41943;SDS011;27636;52.610;13.244;2023-06-14T19:11:20;6.13;;;2.20;;
41943;SDS011;27636;52.610;13.244;2023-06-14T19:16:24;7.82;;;2.30;;
41943;SDS011;27636;52.610;13.244;2023-06-14T19:21:28;6.63;;;2.90;;
41943;SDS011;27636;52.610;13.244;2023-06-14T19:26:33;5.50;;;2.55;;
41943;SDS011;27636;52.610;13.244;2023-06-14T19:31:36;7.63;;;2.40;;
41943;SDS011;27636;52.610;13.244;2023-06-14T19:36:39;5.13;;;2.15;;
41943;SDS011;27636;52.610;13.244;2023-06-14T19:41:45;4.10;;;2.00;;
41943;SDS011;27636;52.610;13.244;2023-06-14T19:46:48;5.97;;;2.20;;
41943;SDS011;27636;52.610;13.244;2023-06-14T19:51:52;7.13;;;2.50;;
41943;SDS011;27636;52.610;13.244;2023-06-14T19:56:57;4.72;;;2.03;;
41943;SDS011;27636;52.610;13.244;2023-06-14T20:07:05;3.97;;;1.88;;
41943;SDS011;27636;52.610;13.244;2023-06-14T20:12:10;6.57;;;2.72;;
41943;SDS011;27636;52.610;13.244;2023-06-14T20:17:14;8.50;;;2.88;;
41943;SDS011;27636;52.610;13.244;2023-06-14T20:22:18;5.30;;;2.20;;
41943;SDS011;27636;52.610;13.244;2023-06-14T20:27:23;7.43;;;3.45;;
41943;SDS011;27636;52.610;13.244;2023-06-14T20:32:26;9.05;;;2.45;;
41943;SDS011;27636;52.610;13.244;2023-06-14T20:37:30;5.03;;;2.30;;
41943;SDS011;27636;52.610;13.244;2023-06-14T20:42:35;4.32;;;2.40;;
41943;SDS011;27636;52.610;13.244;2023-06-14T20:47:39;6.88;;;2.42;;
41943;SDS011;27636;52.610;13.244;2023-06-14T20:52:43;8.80;;;2.50;;
41943;SDS011;27636;52.610;13.244;2023-06-14T20:57:49;6.63;;;2.35;;
41943;SDS011;27636;52.610;13.244;2023-06-14T21:02:53;8.43;;;2.53;;
41943;SDS011;27636;52.610;13.244;2023-06-14T21:08:00;5.68;;;2.60;;
41943;SDS011;27636;52.610;13.244;2023-06-14T21:13:05;5.47;;;2.60;;
41943;SDS011;27636;52.610;13.244;2023-06-14T21:18:09;6.22;;;2.78;;
41943;SDS011;27636;52.610;13.244;2023-06-14T21:23:13;6.50;;;2.67;;
41943;SDS011;27636;52.610;13.244;2023-06-14T21:28:18;6.00;;;2.47;;
41943;SDS011;27636;52.610;13.244;2023-06-14T21:33:22;6.63;;;2.38;;
41943;SDS011;27636;52.610;13.244;2023-06-14T21:38:25;3.67;;;1.77;;
41943;SDS011;27636;52.610;13.244;2023-06-14T21:43:30;6.35;;;2.17;;
41943;SDS011;27636;52.610;13.244;2023-06-14T21:48:34;7.10;;;2.60;;
41943;SDS011;27636;52.610;13.244;2023-06-14T21:53:38;5.97;;;2.17;;
41943;SDS011;27636;52.610;13.244;2023-06-14T21:58:42;5.65;;;2.17;;
41943;SDS011;27636;52.610;13.244;2023-06-14T22:03:46;6.50;;;2.63;;
41943;SDS011;27636;52.610;13.244;2023-06-14T22:08:49;5.90;;;2.50;;
41943;SDS011;27636;52.610;13.244;2023-06-14T22:13:54;6.10;;;2.65;;
41943;SDS011;27636;52.610;13.244;2023-06-14T22:18:59;8.38;;;2.42;;
41943;SDS011;27636;52.610;13.244;2023-06-14T22:29:10;5.63;;;2.20;;
41943;SDS011;27636;52.610;13.244;2023-06-14T22:34:14;7.32;;;2.40;;
41943;SDS011;27636;52.610;13.244;2023-06-14T22:39:18;6.53;;;2.73;;
41943;SDS011;27636;52.610;13.244;2023-06-14T22:44:24;5.30;;;2.05;;
41943;SDS011;27636;52.610;13.244;2023-06-14T22:49:32;5.88;;;2.35;;
41943;SDS011;27636;52.610;13.244;2023-06-14T22:59:42;5.82;;;2.55;;
41943;SDS011;27636;52.610;13.244;2023-06-14T23:04:46;7.47;;;2.72;;
41943;SDS011;27636;52.610;13.244;2023-06-14T23:09:50;8.53;;;2.67;;
41943;SDS011;27636;52.610;13.244;2023-06-14T23:14:55;6.85;;;2.95;;
41943;SDS011;27636;52.610;13.244;2023-06-14T23:20:01;10.10;;;2.63;;
41943;SDS011;27636;52.610;13.244;2023-06-14T23:25:10;6.50;;;2.80;;
41943;SDS011;27636;52.610;13.244;2023-06-14T23:30:18;6.40;;;2.50;;
41943;SDS011;27636;52.610;13.244;2023-06-14T23:35:22;10.57;;;2.72;;
41943;SDS011;27636;52.610;13.244;2023-06-14T23:40:29;6.45;;;2.38;;
41943;SDS011;27636;52.610;13.244;2023-06-14T23:45:34;6.10;;;2.40;;
41943;SDS011;27636;52.610;13.244;2023-06-14T23:50:37;6.05;;;3.03;;
41943;SDS011;27636;52.610;13.244;2023-06-14T23:55:41;8.75;;;3.47;;
